createdAt,value
2018-09-14T00:01:08.735Z,99.90
2018-09-14T00:03:37.125Z,99.90
2018-09-14T00:06:05.387Z,99.90
2018-09-14T00:08:32.996Z,99.90
2018-09-14T00:11:01.428Z,99.90
2018-09-14T00:13:29.338Z,99.90
2018-09-14T00:15:57.079Z,99.90
2018-09-14T00:18:24.799Z,99.90
2018-09-14T00:20:52.508Z,99.90
2018-09-14T00:23:20.096Z,99.90
2018-09-14T00:25:47.900Z,99.90
2018-09-14T00:28:15.616Z,99.90
2018-09-14T00:30:47.377Z,99.90
2018-09-14T00:33:15.066Z,99.90
2018-09-14T00:35:42.782Z,99.90
2018-09-14T00:38:10.419Z,99.90
2018-09-14T00:40:38.651Z,99.90
2018-09-14T00:43:06.335Z,99.90
2018-09-14T00:45:33.849Z,99.90
2018-09-14T00:48:01.816Z,99.90
2018-09-14T00:50:29.465Z,99.90
2018-09-14T00:52:57.040Z,99.90
2018-09-14T00:55:24.792Z,99.90
2018-09-14T00:57:52.826Z,99.90
2018-09-14T01:00:20.733Z,99.90
2018-09-14T01:02:48.325Z,99.90
2018-09-14T01:05:15.894Z,99.90
2018-09-14T01:07:43.573Z,99.90
2018-09-14T01:10:11.171Z,99.90
2018-09-14T01:12:38.826Z,99.90
2018-09-14T01:15:06.609Z,99.90
2018-09-14T01:17:34.201Z,99.90
2018-09-14T01:20:01.839Z,99.90
2018-09-14T01:22:29.593Z,99.90
2018-09-14T01:24:58.270Z,99.90
2018-09-14T01:27:25.950Z,99.90
2018-09-14T01:29:53.549Z,99.90
2018-09-14T01:32:21.176Z,99.90
2018-09-14T01:34:48.855Z,99.90
2018-09-14T01:37:16.514Z,99.90
2018-09-14T01:39:44.890Z,99.90
2018-09-14T01:42:12.477Z,99.90
2018-09-14T01:44:40.236Z,99.90
2018-09-14T01:47:08.473Z,99.90
2018-09-14T01:49:36.212Z,99.90
2018-09-14T01:52:03.992Z,99.90
2018-09-14T01:54:31.679Z,99.90
2018-09-14T01:56:59.582Z,99.90
2018-09-14T01:59:27.804Z,99.90
2018-09-14T02:01:56.098Z,99.90
2018-09-14T02:04:23.738Z,99.90
2018-09-14T02:06:51.931Z,99.90
2018-09-14T02:09:19.636Z,99.90
2018-09-14T02:11:47.773Z,99.90
2018-09-14T02:14:15.438Z,99.90
2018-09-14T02:16:43.180Z,99.90
2018-09-14T02:19:10.817Z,99.90
2018-09-14T02:21:38.380Z,99.90
2018-09-14T02:24:06.059Z,99.90
2018-09-14T02:26:34.132Z,99.90
2018-09-14T02:29:02.276Z,99.90
2018-09-14T02:31:29.799Z,99.90
2018-09-14T02:33:57.434Z,99.90
2018-09-14T02:36:25.024Z,99.90
2018-09-14T02:38:52.682Z,99.90
2018-09-14T02:41:20.220Z,99.90
2018-09-14T02:43:48.509Z,99.90
2018-09-14T02:46:16.280Z,99.90
2018-09-14T02:48:43.932Z,99.90
2018-09-14T02:51:11.513Z,99.90
2018-09-14T02:53:39.711Z,99.90
2018-09-14T02:56:07.270Z,99.90
2018-09-14T02:58:35.604Z,99.90
2018-09-14T03:01:03.903Z,99.90
2018-09-14T03:03:31.476Z,99.90
2018-09-14T03:05:59.186Z,99.90
2018-09-14T03:08:26.783Z,99.90
2018-09-14T03:10:54.316Z,99.90
2018-09-14T03:13:21.960Z,99.90
2018-09-14T03:15:49.769Z,99.90
2018-09-14T03:18:17.283Z,99.90
2018-09-14T03:20:44.871Z,99.90
2018-09-14T03:23:12.501Z,99.90
2018-09-14T03:25:40.044Z,99.90
2018-09-14T03:28:07.944Z,99.90
2018-09-14T03:30:35.609Z,99.90
2018-09-14T03:33:03.278Z,99.90
2018-09-14T03:35:30.983Z,99.90
2018-09-14T03:37:58.679Z,99.90
2018-09-14T03:40:26.440Z,99.90
2018-09-14T03:42:54.790Z,99.90
2018-09-14T03:45:23.037Z,99.90
2018-09-14T03:47:51.300Z,99.90
2018-09-14T03:50:19.447Z,99.90
2018-09-14T03:52:47.306Z,99.90
2018-09-14T03:55:14.969Z,99.90
2018-09-14T03:57:42.541Z,99.90
2018-09-14T04:00:10.411Z,99.90
2018-09-14T04:02:37.980Z,99.90
2018-09-14T04:05:05.644Z,99.90
2018-09-14T04:07:33.483Z,99.90
2018-09-14T04:10:01.480Z,99.90
2018-09-14T04:12:29.155Z,99.90
2018-09-14T04:14:57.409Z,99.90
2018-09-14T04:17:25.049Z,99.90
2018-09-14T04:19:52.668Z,99.90
2018-09-14T04:22:21.056Z,99.90
2018-09-14T04:24:48.750Z,99.90
2018-09-14T04:27:16.392Z,99.90
2018-09-14T04:29:43.975Z,99.90
2018-09-14T04:32:11.618Z,99.90
2018-09-14T04:34:39.276Z,99.90
2018-09-14T04:37:06.956Z,99.90
2018-09-14T04:39:34.502Z,99.90
2018-09-14T04:42:02.093Z,99.90
2018-09-14T04:44:29.749Z,99.90
2018-09-14T04:46:57.813Z,99.90
2018-09-14T04:49:25.496Z,99.90
2018-09-14T04:51:53.083Z,99.90
2018-09-14T04:54:20.720Z,99.90
2018-09-14T04:56:48.268Z,99.90
2018-09-14T04:59:16.277Z,99.90
2018-09-14T05:01:43.965Z,99.90
2018-09-14T05:04:11.631Z,99.90
2018-09-14T05:06:39.226Z,99.90
2018-09-14T05:09:07.285Z,99.90
2018-09-14T05:11:34.882Z,99.90
2018-09-14T05:14:03.079Z,99.90
2018-09-14T05:16:30.701Z,99.90
2018-09-14T05:18:58.329Z,99.90
2018-09-14T05:21:25.984Z,99.90
2018-09-14T05:23:53.626Z,99.90
2018-09-14T05:26:21.167Z,99.90
2018-09-14T05:28:48.698Z,99.90
2018-09-14T05:31:16.428Z,99.90
2018-09-14T05:33:44.051Z,99.90
2018-09-14T05:36:11.801Z,99.90
2018-09-14T05:38:39.454Z,99.90
2018-09-14T05:41:07.038Z,99.90
2018-09-14T05:43:34.678Z,99.90
2018-09-14T05:46:02.336Z,99.90
2018-09-14T05:48:30.024Z,99.90
2018-09-14T05:50:57.812Z,99.90
2018-09-14T05:53:25.545Z,99.90
2018-09-14T05:55:53.184Z,99.90
2018-09-14T05:58:21.146Z,99.90
2018-09-14T06:00:49.409Z,99.90
2018-09-14T06:03:17.365Z,99.90
2018-09-14T06:05:45.075Z,99.90
2018-09-14T06:08:12.663Z,99.90
2018-09-14T06:10:41.736Z,99.90
2018-09-14T06:13:09.533Z,99.90
2018-09-14T06:15:37.355Z,99.90
2018-09-14T06:18:05.456Z,99.90
2018-09-14T06:20:33.386Z,99.90
2018-09-14T06:23:01.260Z,99.90
2018-09-14T06:25:29.132Z,99.90
2018-09-14T06:27:56.931Z,99.90
2018-09-14T06:30:25.185Z,99.90
2018-09-14T06:32:53.052Z,99.90
2018-09-14T06:35:21.093Z,99.90
2018-09-14T06:37:48.777Z,99.90
2018-09-14T06:40:16.725Z,99.90
2018-09-14T06:42:44.366Z,99.90
2018-09-14T06:45:12.719Z,99.90
2018-09-14T06:47:41.128Z,99.90
2018-09-14T06:50:08.902Z,99.90
2018-09-14T06:52:37.019Z,99.90
2018-09-14T06:55:05.385Z,99.90
2018-09-14T06:57:33.865Z,99.90
2018-09-14T07:00:01.518Z,99.90
2018-09-14T07:02:29.521Z,99.90
2018-09-14T07:04:57.547Z,99.90
2018-09-14T07:07:25.381Z,99.90
2018-09-14T07:09:53.092Z,99.90
2018-09-14T07:12:20.792Z,99.90
2018-09-14T07:14:48.507Z,99.90
2018-09-14T07:17:16.246Z,99.90
2018-09-14T07:19:43.941Z,99.90
2018-09-14T07:22:11.820Z,99.90
2018-09-14T07:24:39.784Z,99.90
2018-09-14T07:27:07.276Z,99.90
2018-09-14T07:29:34.930Z,99.90
2018-09-14T07:32:02.806Z,99.90
2018-09-14T07:34:30.764Z,99.90
2018-09-14T07:36:58.532Z,99.90
2018-09-14T07:39:26.376Z,99.90
2018-09-14T07:41:55.131Z,99.90
2018-09-14T07:44:22.974Z,99.90
2018-09-14T07:46:50.696Z,99.90
2018-09-14T07:49:18.612Z,99.90
2018-09-14T07:51:46.362Z,99.90
2018-09-14T07:54:14.222Z,99.90
2018-09-14T07:56:41.956Z,99.90
2018-09-14T07:59:09.691Z,99.90
2018-09-14T08:01:38.226Z,99.90
2018-09-14T08:04:06.207Z,99.90
2018-09-14T08:06:34.290Z,99.90
2018-09-14T08:09:01.987Z,99.90
2018-09-14T08:11:29.735Z,99.90
2018-09-14T08:13:57.598Z,99.90
2018-09-14T08:16:25.311Z,99.90
2018-09-14T08:18:52.953Z,99.90
2018-09-14T08:21:20.787Z,99.90
2018-09-14T08:23:48.548Z,99.90
2018-09-14T08:26:16.475Z,99.90
2018-09-14T08:28:44.316Z,99.90
2018-09-14T08:31:12.116Z,99.90
2018-09-14T08:33:39.749Z,99.90
2018-09-14T08:36:07.405Z,99.90
2018-09-14T08:38:35.128Z,99.90
2018-09-14T08:41:02.865Z,99.90
2018-09-14T08:43:30.553Z,99.90
2018-09-14T08:45:58.467Z,99.90
2018-09-14T08:48:27.063Z,99.90
2018-09-14T08:50:55.559Z,99.90
2018-09-14T08:53:23.395Z,99.90
2018-09-14T08:55:51.075Z,99.90
2018-09-14T08:58:19.259Z,99.90
2018-09-14T09:00:47.770Z,99.90
2018-09-14T09:03:15.304Z,99.90
2018-09-14T09:05:43.119Z,99.90
2018-09-14T09:08:10.834Z,99.90
2018-09-14T09:10:38.525Z,99.90
2018-09-14T09:13:06.147Z,99.20
2018-09-14T09:15:33.819Z,99.20
2018-09-14T09:18:01.444Z,98.10
2018-09-14T09:20:29.034Z,99.20
2018-09-14T09:22:56.797Z,99.90
2018-09-14T09:25:24.534Z,99.90
2018-09-14T09:27:52.233Z,97.80
2018-09-14T09:30:19.827Z,97.30
2018-09-14T09:32:47.576Z,95.40
2018-09-14T09:35:15.207Z,97.30
2018-09-14T09:37:42.932Z,98.20
2018-09-14T09:40:10.640Z,95.30
2018-09-14T09:42:38.507Z,94.90
2018-09-14T09:45:07.624Z,95.70
2018-09-14T09:47:35.384Z,95.50
2018-09-14T09:50:03.092Z,97.00
2018-09-14T09:52:30.849Z,97.50
2018-09-14T09:54:58.922Z,96.80
2018-09-14T09:57:26.647Z,94.30
2018-09-14T09:59:54.568Z,94.80
2018-09-14T10:02:28.055Z,93.60
2018-09-14T10:05:01.838Z,94.50
2018-09-14T10:07:29.503Z,91.80
2018-09-14T10:09:57.964Z,93.10
2018-09-14T10:12:26.284Z,93.00
2018-09-14T10:14:54.042Z,91.20
2018-09-14T10:17:21.789Z,87.60
2018-09-14T10:19:50.070Z,85.60
2018-09-14T10:22:18.340Z,81.80
2018-09-14T10:24:46.156Z,78.00
2018-09-14T10:27:13.772Z,78.40
2018-09-14T10:29:41.700Z,81.10
2018-09-14T10:32:10.144Z,79.80
2018-09-14T10:34:37.781Z,82.30
2018-09-14T10:37:05.242Z,86.00
2018-09-14T10:39:33.423Z,88.50
2018-09-14T10:42:02.430Z,85.30
2018-09-14T10:44:31.019Z,83.80
2018-09-14T10:46:58.874Z,77.60
2018-09-14T10:49:27.415Z,76.30
2018-09-14T10:51:55.126Z,74.80
2018-09-14T10:54:23.769Z,76.10
2018-09-14T10:56:52.154Z,76.00
2018-09-14T10:59:20.554Z,76.40
2018-09-14T11:01:49.922Z,76.70
2018-09-14T11:04:19.135Z,78.90
2018-09-14T11:06:48.793Z,79.30
2018-09-14T11:09:16.512Z,80.40
2018-09-14T11:11:44.648Z,80.90
2018-09-14T11:14:12.468Z,82.20
2018-09-14T11:16:40.301Z,84.10
2018-09-14T11:19:08.948Z,84.10
2018-09-14T11:21:36.864Z,82.00
2018-09-14T11:24:04.607Z,80.70
2018-09-14T11:26:32.654Z,80.20
2018-09-14T11:29:01.293Z,81.00
2018-09-14T11:31:29.064Z,81.50
2018-09-14T11:33:57.667Z,82.00
2018-09-14T11:36:27.065Z,76.10
2018-09-14T11:38:59.437Z,76.90
2018-09-14T11:41:27.229Z,78.30
2018-09-14T11:43:55.292Z,78.70
2018-09-14T11:46:23.084Z,75.70
2018-09-14T11:48:51.467Z,78.30
2018-09-14T11:51:19.291Z,79.60
2018-09-14T11:53:48.565Z,77.40
2018-09-14T11:56:17.102Z,78.20
2018-09-14T11:58:44.926Z,75.80
2018-09-14T12:01:13.820Z,72.30
2018-09-14T12:03:41.634Z,72.20
2018-09-14T12:06:09.466Z,71.20
2018-09-14T12:08:37.387Z,73.50
2018-09-14T12:11:05.248Z,71.60
2018-09-14T12:13:33.150Z,70.80
2018-09-14T12:16:01.013Z,73.50
2018-09-14T12:18:28.946Z,74.70
2018-09-14T12:20:56.884Z,70.30
2018-09-14T12:23:24.836Z,69.70
2018-09-14T12:25:52.901Z,69.90
2018-09-14T12:28:20.964Z,66.60
2018-09-14T12:30:49.338Z,67.10
2018-09-14T12:33:17.104Z,70.10
2018-09-14T12:35:45.939Z,69.60
2018-09-14T12:38:13.924Z,67.80
2018-09-14T12:40:42.228Z,71.10
2018-09-14T12:43:10.099Z,70.10
2018-09-14T12:45:38.198Z,69.90
2018-09-14T12:48:06.318Z,67.60
2018-09-14T12:50:34.200Z,67.70
2018-09-14T12:53:01.863Z,68.00
2018-09-14T12:55:30.005Z,69.30
2018-09-14T12:57:57.849Z,70.50
2018-09-14T13:00:26.224Z,69.60
2018-09-14T13:02:54.309Z,68.70
2018-09-14T13:05:22.187Z,71.50
2018-09-14T13:07:50.430Z,69.90
2018-09-14T13:10:18.327Z,68.20
2018-09-14T13:12:46.230Z,69.60
2018-09-14T13:15:14.306Z,69.40
2018-09-14T13:17:42.234Z,68.50
2018-09-14T13:20:10.062Z,68.70
2018-09-14T13:22:37.826Z,65.40
2018-09-14T13:25:05.915Z,67.90
2018-09-14T13:27:33.757Z,67.50
2018-09-14T13:30:02.093Z,66.60
2018-09-14T13:32:29.782Z,67.00
2018-09-14T13:34:58.227Z,67.40
2018-09-14T13:37:26.196Z,65.40
2018-09-14T13:39:54.112Z,65.20
2018-09-14T13:42:22.131Z,66.30
2018-09-14T13:44:50.287Z,66.00
2018-09-14T13:47:18.218Z,65.90
2018-09-14T13:49:45.929Z,64.80
2018-09-14T13:52:13.848Z,65.90
2018-09-14T13:54:41.681Z,66.80
2018-09-14T13:57:09.412Z,64.70
2018-09-14T13:59:37.350Z,65.00
2018-09-14T14:02:05.212Z,67.40
2018-09-14T14:04:32.998Z,67.30
2018-09-14T14:07:01.536Z,68.70
2018-09-14T14:09:29.532Z,68.20
2018-09-14T14:11:57.256Z,68.00
2018-09-14T14:14:25.470Z,71.00
2018-09-14T14:16:54.753Z,68.70
2018-09-14T14:19:23.343Z,68.70
2018-09-14T14:21:51.228Z,70.20
2018-09-14T14:24:19.072Z,71.30
2018-09-14T14:26:46.842Z,70.30
2018-09-14T14:29:14.607Z,71.60
2018-09-14T14:31:42.385Z,71.10
2018-09-14T14:34:10.156Z,68.30
2018-09-14T14:36:38.142Z,69.10
2018-09-14T14:39:08.422Z,68.40
2018-09-14T14:41:36.392Z,68.30
2018-09-14T14:44:04.212Z,68.00
2018-09-14T14:46:32.233Z,68.00
2018-09-14T14:49:01.329Z,65.70
2018-09-14T14:51:29.089Z,65.70
2018-09-14T14:53:56.789Z,64.00
2018-09-14T14:56:24.869Z,63.20
2018-09-14T14:58:53.707Z,61.90
2018-09-14T15:01:21.481Z,62.70
2018-09-14T15:03:49.553Z,63.80
2018-09-14T15:06:17.569Z,62.70
2018-09-14T15:08:45.289Z,62.40
2018-09-14T15:11:13.072Z,61.10
2018-09-14T15:13:41.130Z,61.80
2018-09-14T15:16:09.380Z,61.80
2018-09-14T15:18:37.588Z,62.00
2018-09-14T15:21:07.266Z,62.20
2018-09-14T15:23:36.095Z,62.30
2018-09-14T15:26:03.836Z,61.90
2018-09-14T15:28:31.845Z,62.00
2018-09-14T15:30:59.871Z,63.60
2018-09-14T15:33:27.545Z,63.10
2018-09-14T15:35:55.593Z,62.90
2018-09-14T15:38:23.267Z,64.40
2018-09-14T15:40:51.056Z,64.00
2018-09-14T15:43:18.889Z,62.80
2018-09-14T15:45:46.604Z,62.40
2018-09-14T15:48:14.474Z,62.90
2018-09-14T15:50:42.880Z,64.30
2018-09-14T15:53:10.756Z,63.50
2018-09-14T15:55:38.532Z,62.10
2018-09-14T15:58:06.091Z,63.10
2018-09-14T16:00:33.745Z,62.40
2018-09-14T16:03:01.379Z,62.20
2018-09-14T16:05:29.093Z,61.80
2018-09-14T16:07:56.786Z,62.60
2018-09-14T16:10:25.107Z,62.80
2018-09-14T16:12:53.555Z,63.20
2018-09-14T16:15:21.448Z,63.90
2018-09-14T16:17:49.285Z,63.30
2018-09-14T16:20:17.018Z,63.60
2018-09-14T16:22:44.657Z,63.60
2018-09-14T16:25:12.306Z,65.10
2018-09-14T16:27:39.903Z,66.10
2018-09-14T16:30:07.624Z,66.50
2018-09-14T16:32:35.949Z,67.20
2018-09-14T16:35:08.059Z,68.60
2018-09-14T16:37:35.667Z,69.90
2018-09-14T16:40:03.886Z,69.80
2018-09-14T16:42:31.535Z,69.90
2018-09-14T16:44:59.814Z,70.90
2018-09-14T16:47:27.412Z,71.30
2018-09-14T16:49:55.146Z,71.30
2018-09-14T16:52:22.740Z,72.50
2018-09-14T16:54:50.420Z,72.00
2018-09-14T16:57:18.783Z,71.30
2018-09-14T16:59:46.365Z,72.40
2018-09-14T17:02:14.145Z,73.50
2018-09-14T17:04:41.934Z,73.30
2018-09-14T17:07:09.670Z,74.90
2018-09-14T17:09:37.440Z,75.40
2018-09-14T17:12:05.630Z,75.90
2018-09-14T17:14:34.314Z,77.80
2018-09-14T17:17:01.981Z,78.40
2018-09-14T17:19:29.711Z,78.30
2018-09-14T17:21:57.446Z,78.70
2018-09-14T17:24:25.156Z,78.30
2018-09-14T17:26:52.772Z,78.60
2018-09-14T17:29:20.766Z,79.20
2018-09-14T17:31:48.433Z,81.10
2018-09-14T17:34:16.545Z,82.90
2018-09-14T17:36:44.207Z,81.40
2018-09-14T17:39:11.901Z,82.30
2018-09-14T17:41:39.618Z,82.80
2018-09-14T17:44:07.715Z,83.80
2018-09-14T17:46:35.333Z,84.70
2018-09-14T17:49:03.053Z,85.20
2018-09-14T17:51:32.176Z,85.90
2018-09-14T17:53:59.764Z,86.80
2018-09-14T17:56:27.401Z,87.40
2018-09-14T17:58:54.974Z,87.40
2018-09-14T18:01:22.710Z,87.30
2018-09-14T18:03:50.868Z,87.30
2018-09-14T18:06:18.771Z,88.00
2018-09-14T18:08:46.555Z,88.60
2018-09-14T18:11:14.503Z,89.10
2018-09-14T18:13:42.161Z,89.00
2018-09-14T18:16:10.703Z,89.30
2018-09-14T18:18:38.528Z,90.00
2018-09-14T18:21:06.354Z,89.10
2018-09-14T18:23:34.663Z,88.70
2018-09-14T18:26:02.695Z,88.00
2018-09-14T18:28:30.554Z,88.30
2018-09-14T18:30:58.168Z,89.00
2018-09-14T18:33:26.135Z,88.70
2018-09-14T18:35:53.882Z,89.10
2018-09-14T18:38:21.774Z,89.90
2018-09-14T18:40:49.452Z,88.00
2018-09-14T18:43:17.705Z,87.50
2018-09-14T18:45:45.380Z,88.20
2018-09-14T18:48:13.633Z,88.80
2018-09-14T18:50:41.907Z,89.70
2018-09-14T18:53:09.692Z,90.00
2018-09-14T18:55:37.405Z,90.80
2018-09-14T18:58:05.389Z,90.80
2018-09-14T19:00:33.916Z,91.30
2018-09-14T19:03:01.536Z,91.40
2018-09-14T19:05:29.297Z,92.00
2018-09-14T19:07:57.592Z,92.50
2018-09-14T19:10:25.463Z,93.20
2018-09-14T19:12:53.171Z,92.90
2018-09-14T19:15:21.186Z,92.70
2018-09-14T19:17:49.139Z,92.70
2018-09-14T19:20:17.638Z,92.50
2018-09-14T19:22:45.300Z,92.70
2018-09-14T19:25:13.651Z,92.90
2018-09-14T19:27:41.321Z,92.90
2018-09-14T19:30:09.299Z,93.60
2018-09-14T19:32:36.998Z,93.20
2018-09-14T19:35:04.890Z,93.50
2018-09-14T19:37:32.941Z,93.80
2018-09-14T19:40:00.921Z,94.00
2018-09-14T19:42:28.562Z,93.50
2018-09-14T19:44:56.181Z,93.90
2018-09-14T19:47:24.003Z,94.20
2018-09-14T19:49:52.100Z,94.40
2018-09-14T19:52:20.288Z,94.60
2018-09-14T19:54:48.034Z,94.80
2018-09-14T19:57:15.853Z,94.70
2018-09-14T19:59:43.550Z,94.90
2018-09-14T20:02:11.374Z,95.30
2018-09-14T20:04:38.982Z,95.30
2018-09-14T20:07:07.096Z,95.10
2018-09-14T20:09:34.816Z,96.00
2018-09-14T20:12:02.638Z,95.90
2018-09-14T20:14:30.448Z,95.60
2018-09-14T20:16:58.245Z,95.80
2018-09-14T20:19:25.920Z,95.40
2018-09-14T20:21:53.699Z,95.50
2018-09-14T20:24:21.732Z,96.00
2018-09-14T20:26:49.494Z,95.90
2018-09-14T20:29:17.160Z,96.50
2018-09-14T20:31:45.861Z,96.30
2018-09-14T20:34:13.444Z,96.20
2018-09-14T20:36:41.264Z,96.60
2018-09-14T20:39:10.802Z,96.70
2018-09-14T20:41:38.820Z,96.00
2018-09-14T20:44:06.465Z,96.50
2018-09-14T20:46:34.342Z,96.60
2018-09-14T20:49:02.024Z,96.60
2018-09-14T20:51:29.799Z,96.70
2018-09-14T20:53:57.573Z,96.60
2018-09-14T20:56:25.848Z,96.70
2018-09-14T20:58:53.784Z,95.90
2018-09-14T21:01:21.462Z,95.70
2018-09-14T21:03:49.130Z,96.90
2018-09-14T21:06:16.745Z,96.90
2018-09-14T21:08:44.496Z,97.80
2018-09-14T21:11:12.949Z,97.70
2018-09-14T21:13:40.914Z,98.40
2018-09-14T21:16:08.557Z,98.50
2018-09-14T21:18:37.593Z,99.30
2018-09-14T21:21:05.300Z,99.70
2018-09-14T21:23:33.109Z,99.90
2018-09-14T21:26:00.835Z,99.90
2018-09-14T21:28:28.888Z,99.90
2018-09-14T21:30:56.672Z,99.90
2018-09-14T21:33:24.315Z,99.90
2018-09-14T21:35:52.138Z,99.90
2018-09-14T21:38:19.795Z,99.90
2018-09-14T21:40:48.035Z,99.90
2018-09-14T21:43:16.194Z,99.90
2018-09-14T21:45:44.172Z,99.60
2018-09-14T21:48:11.978Z,99.20
2018-09-14T21:50:40.114Z,99.70
2018-09-14T21:53:07.736Z,99.90
2018-09-14T21:55:42.452Z,99.60
2018-09-14T21:58:10.005Z,99.90
2018-09-14T22:00:43.305Z,99.90
2018-09-14T22:03:11.681Z,99.90
2018-09-14T22:05:39.913Z,99.90
2018-09-14T22:08:07.621Z,99.90
2018-09-14T22:10:35.378Z,99.90
2018-09-14T22:13:03.038Z,99.90
2018-09-14T22:15:31.476Z,99.90
2018-09-14T22:17:59.070Z,99.90
2018-09-14T22:20:26.680Z,99.90
2018-09-14T22:22:54.693Z,99.90
2018-09-14T22:25:22.716Z,99.90
2018-09-14T22:27:50.428Z,99.90
2018-09-14T22:30:18.104Z,99.90
2018-09-14T22:32:46.023Z,99.70
2018-09-14T22:35:13.853Z,99.00
2018-09-14T22:37:41.925Z,98.10
2018-09-14T22:40:09.665Z,99.60
2018-09-14T22:42:38.097Z,99.70
2018-09-14T22:45:06.922Z,98.60
2018-09-14T22:47:35.290Z,97.60
2018-09-14T22:50:03.072Z,96.90
2018-09-14T22:52:30.837Z,97.00
2018-09-14T22:54:58.543Z,96.90
2018-09-14T22:57:26.231Z,94.50
2018-09-14T22:59:54.423Z,94.00
2018-09-14T23:02:22.206Z,92.90
2018-09-14T23:04:50.608Z,93.30
2018-09-14T23:07:18.278Z,92.70
2018-09-14T23:09:46.034Z,92.90
2018-09-14T23:12:13.621Z,90.50
2018-09-14T23:14:41.277Z,83.60
2018-09-14T23:17:09.064Z,77.40
2018-09-14T23:19:37.338Z,73.00
2018-09-14T23:22:05.701Z,71.40
2018-09-14T23:24:33.807Z,70.30
2018-09-14T23:27:02.385Z,70.00
2018-09-14T23:29:31.192Z,70.20
2018-09-14T23:31:59.271Z,69.50
2018-09-14T23:34:27.958Z,68.20
2018-09-14T23:36:56.017Z,68.50
2018-09-14T23:39:24.123Z,68.00
2018-09-14T23:41:52.515Z,68.40
2018-09-14T23:44:21.315Z,68.80
2018-09-14T23:46:49.091Z,68.80
2018-09-14T23:49:17.446Z,68.00
2018-09-14T23:51:45.309Z,68.10
2018-09-14T23:54:13.087Z,68.20
2018-09-14T23:56:40.749Z,68.70
2018-09-14T23:59:08.482Z,69.40
